Terminal Aerodrome Forecast
Issued by NWS Knoxville/Tri Cities, TN

Home | Current Version | Previous Version | Text Only | Print | Product List | Glossary On
Versions: 1 2 3 4 5 6 7 8 9 10 11 12 13 14 15 16 17 18 19 20 21 22 23 24
000
FTUS44 KMRX 031128
TAFTYS
TAF
KTYS 031128Z 0312/0412 VRB04KT P6SM VCSH SCT009 OVC015
     FM031600 29008KT P6SM SCT015 OVC025
     FM031800 30010KT P6SM OVC035
     FM032300 28007KT P6SM OVC040=

USA.gov is the U.S. government's official web portal to all federal, state and local government web resources and services.